KSFB/SFB METAR and TAF weather

Enter ICAO airport designator
Station Type Date Time Source
KSFB METAR 2021/04/13 22:53 UTC NOAA

KSFB 132253Z 07011KT 10SM CLR 27/16 A3004 RMK AO2 SLP170 T02670156


Station Type Date Time Source
KSFB Decoded METAR 2021/04/13 22:53 UTC NOAA

ORLANDO SANFORD AIRPORT, FL, United States (KSFB) 28-47N 081-15W
Apr 13, 2021 - 06:53 PM EDT / 2021.04.13 2253 UTC
Wind: from the ENE (070 degrees) at 13 MPH (11 KT):0
Visibility: 10 mile(s):0
Sky conditions: clear
Temperature: 80.1 F (26.7 C)
Dew Point: 60.1 F (15.6 C)
Relative Humidity: 50%
Pressure (altimeter): 30.04 in. Hg (1017 hPa)
ob: KSFB 132253Z 07011KT 10SM CLR 27/16 A3004 RMK AO2 SLP170 T02670156
cycle: 23

Station Type Date Time Source
KSFB TAF 2021/04/13 18:39 UTC NOAA

TAF KSFB 131736Z 1318/1418 03009KT P6SM SKC
FM132300 07012KT P6SM FEW250
FM140300 VRB04KT P6SM SCT250
FM141500 14008KT P6SM FEW035 SCT250

Example: see airport list